Time;durP1;ratioP1;P1;durP2;ratioP2;P2;SDS_P1;SDS_P2;PMS_P1;PMS_P2;Temp;Humidity;BMP_temperature;BMP_pressure;BME280_temperature;BME280_humidity;BME280_pressure;Samples;Min_cycle;Max_cycle;Signal;HPM_P1;HPM_P2
2024/01/26 00:00:10;;;;;;;11.25;10.50;;;;;;;;;;4925824;29;20052;-90
2024/01/26 00:03:32;;;;;;;11.15;10.35;;;;;;;;;;4934417;29;20052;-91
2024/01/26 00:28:37;;;;;;;;;;;;;;;;;;;;;
2024/01/26 00:31:40;;;;;;;9.98;9.38;;;;;;;;;;4967350;28;20049;-90
2024/01/26 00:38:14;;;;;;;9.60;8.90;;;;;;;;;;4965867;29;20058;-91
2024/01/26 00:58:28;;;;;;;10.30;9.70;;;;;;;;;;4959001;29;20042;-91
2024/01/26 01:05:07;;;;;;;10.27;9.57;;;;;;;;;;4915955;29;20077;-90
2024/01/26 01:07:59;;;;;;;9.88;9.15;;;;;;;;;;4946657;29;20039;-91
2024/01/26 01:10:53;;;;;;;9.77;9.07;;;;;;;;;;4945559;29;20076;-91
2024/01/26 01:13:43;;;;;;;9.30;8.60;;;;;;;;;;4943772;29;20064;-91
2024/01/26 01:16:28;;;;;;;8.82;8.32;;;;;;;;;;4945776;29;20079;-91
2024/01/26 01:19:20;;;;;;;8.68;8.18;;;;;;;;;;4945048;29;20071;-91
2024/01/26 01:22:09;;;;;;;8.37;7.87;;;;;;;;;;4946553;29;20076;-90
2024/01/26 01:25:01;;;;;;;8.35;7.65;;;;;;;;;;4950982;29;20280;-90
2024/01/26 01:27:51;;;;;;;8.43;7.93;;;;;;;;;;4951593;29;20063;-90
2024/01/26 01:30:51;;;;;;;8.07;7.57;;;;;;;;;;4951831;29;20085;-91
2024/01/26 01:33:38;;;;;;;7.60;7.00;;;;;;;;;;4950319;29;20063;-90
2024/01/26 01:40:15;;;;;;;7.75;7.00;;;;;;;;;;4962182;29;20042;-90
2024/01/26 01:43:20;;;;;;;7.82;7.07;;;;;;;;;;4948520;29;20102;-91
2024/01/26 01:46:16;;;;;;;12.25;6.68;;;;;;;;;;4946410;29;20108;-90
2024/01/26 01:49:07;;;;;;;6.80;6.10;;;;;;;;;;4962505;28;20143;-91
2024/01/26 01:52:01;;;;;;;11.05;6.40;;;;;;;;;;4948227;29;20075;-90
2024/01/26 02:06:18;;;;;;;8.77;8.07;;;;;;;;;;4962359;29;20034;-90
2024/01/26 02:09:11;;;;;;;9.73;8.60;;;;;;;;;;4961219;28;20123;-90
2024/01/26 02:12:17;;;;;;;10.75;7.57;;;;;;;;;;4961383;28;20058;-91
2024/01/26 02:15:21;;;;;;;8.73;7.97;;;;;;;;;;4941026;29;20079;-90
2024/01/26 02:36:10;;;;;;;8.10;7.30;;;;;;;;;;4832270;29;20082;-90
2024/01/26 02:39:05;;;;;;;8.32;7.72;;;;;;;;;;4851306;29;20071;-90
2024/01/26 02:45:27;;;;;;;8.77;8.10;;;;;;;;;;4879370;28;20060;-90
2024/01/26 02:48:15;;;;;;;8.20;7.50;;;;;;;;;;4942985;29;20086;-90
2024/01/26 02:51:33;;;;;;;;;;;;;;;;;;;;;
2024/01/26 02:54:26;;;;;;;8.18;7.68;;;;;;;;;;4944684;29;20103;-90
2024/01/26 02:57:23;;;;;;;;;;;;;;;;;;;;;
2024/01/26 03:00:14;;;;;;;8.57;7.65;;;;;;;;;;4946211;29;20511;-90
2024/01/26 03:03:13;;;;;;;8.50;7.80;;;;;;;;;;4930704;29;20457;-90
2024/01/26 03:06:07;;;;;;;8.13;7.25;;;;;;;;;;4929899;29;20058;-90
2024/01/26 03:08:53;;;;;;;;;;;;;;;;;;4943810;29;20098;-90
2024/01/26 03:11:47;;;;;;;9.80;8.80;;;;;;;;;;4944395;29;19918;-90
2024/01/26 03:14:46;;;;;;;11.23;9.07;;;;;;;;;;4945026;29;20128;-90
2024/01/26 03:17:43;;;;;;;13.38;8.80;;;;;;;;;;4932795;29;20068;-90
2024/01/26 03:20:31;;;;;;;8.48;7.80;;;;;;;;;;4950900;29;20550;-90
2024/01/26 03:27:24;;;;;;;9.68;8.85;;;;;;;;;;4945739;29;20039;-90
2024/01/26 03:30:25;;;;;;;12.15;9.15;;;;;;;;;;4931124;29;20131;-90
2024/01/26 03:59:52;;;;;;;14.13;8.70;;;;;;;;;;2302370;23;20377;-89
2024/01/26 04:02:36;;;;;;;9.90;8.88;;;;;;;;;;4963847;28;20179;-88
2024/01/26 04:12:10;;;;;;;10.02;9.02;;;;;;;;;;4981608;28;20136;-90
2024/01/26 04:15:23;;;;;;;20.40;10.30;;;;;;;;;;4966434;28;20404;-89
2024/01/26 04:21:52;;;;;;;10.43;9.20;;;;;;;;;;4980492;28;20452;-90
2024/01/26 04:32:03;;;;;;;13.25;10.82;;;;;;;;;;4932181;28;20196;-89
2024/01/26 04:35:03;;;;;;;13.15;12.13;;;;;;;;;;4965774;28;20045;-89
2024/01/26 04:45:09;;;;;;;18.23;12.63;;;;;;;;;;4920495;29;20042;-89
2024/01/26 04:48:04;;;;;;;26.70;11.13;;;;;;;;;;4956064;28;20049;-89
2024/01/26 04:54:54;;;;;;;;;;;;;;;;;;;;;
2024/01/26 05:05:09;;;;;;;;;;;;;;;;;;;;;
2024/01/26 05:12:01;;;;;;;20.90;19.17;;;;;;;;;;4939063;29;20063;-91
2024/01/26 05:18:52;;;;;;;18.25;16.38;;;;;;;;;;4938994;29;20047;-89
2024/01/26 05:21:45;;;;;;;19.48;16.05;;;;;;;;;;4938659;29;20178;-90
2024/01/26 05:28:10;;;;;;;16.95;14.30;;;;;;;;;;4950107;28;20452;-90
2024/01/26 05:31:00;;;;;;;18.38;14.35;;;;;;;;;;4965938;28;20046;-90
2024/01/26 05:33:47;;;;;;;18.63;15.93;;;;;;;;;;4966559;28;20050;-91
2024/01/26 05:36:51;;;;;;;24.00;16.33;;;;;;;;;;4968564;28;20061;-91
2024/01/26 05:39:53;;;;;;;21.13;18.05;;;;;;;;;;4970052;28;20046;-91
2024/01/26 05:46:09;;;;;;;22.73;20.52;;;;;;;;;;4981635;28;20046;-91
2024/01/26 05:48:56;;;;;;;22.30;20.10;;;;;;;;;;4965751;28;20588;-90
2024/01/26 05:51:41;;;;;;;21.95;20.05;;;;;;;;;;4965301;28;20096;-90
2024/01/26 05:54:41;;;;;;;24.85;21.30;;;;;;;;;;4965970;28;20146;-91
2024/01/26 05:57:43;;;;;;;21.42;18.98;;;;;;;;;;4968939;28;20555;-91
2024/01/26 06:03:52;;;;;;;;;;;;;;;;;;;;;
2024/01/26 06:06:49;;;;;;;32.42;29.85;;;;;;;;;;4993445;28;20041;-90
2024/01/26 06:09:37;;;;;;;30.88;28.70;;;;;;;;;;4970626;28;20393;-90
2024/01/26 06:12:45;;;;;;;27.40;25.52;;;;;;;;;;4968844;28;20045;-90
2024/01/26 06:26:27;;;;;;;;;;;;;;;;;;;;;
2024/01/26 06:29:28;;;;;;;;;;;;;;;;;;;;;
2024/01/26 06:32:19;;;;;;;27.23;24.52;;;;;;;;;;5008529;28;20120;-90
2024/01/26 06:39:20;;;;;;;21.48;19.33;;;;;;;;;;5003323;28;20128;-89
2024/01/26 06:42:05;;;;;;;28.17;17.73;;;;;;;;;;4988036;28;20065;-90
2024/01/26 06:44:55;;;;;;;27.70;20.77;;;;;;;;;;4987588;28;20089;-90
2024/01/26 06:47:47;;;;;;;26.17;19.45;;;;;;;;;;4986499;28;20054;-91
2024/01/26 06:54:28;;;;;;;22.27;19.30;;;;;;;;;;5005011;28;20054;-90
2024/01/26 07:01:09;;;;;;;28.13;24.70;;;;;;;;;;4992039;28;20553;-89
2024/01/26 07:12:03;;;;;;;;;;;;;;;;;;;;;
2024/01/26 07:29:29;;;;;;;30.85;28.20;;;;;;;;;;4974011;28;20038;-91
2024/01/26 07:32:34;;;;;;;;;;;;;;;;;;;;;
2024/01/26 07:50:11;;;;;;;26.73;24.50;;;;;;;;;;4972014;28;20230;-89
2024/01/26 07:52:56;;;;;;;26.52;23.95;;;;;;;;;;4968453;28;20056;-90
2024/01/26 08:02:50;;;;;;;26.17;24.10;;;;;;;;;;5007611;28;20046;-90
2024/01/26 08:06:00;;;;;;;;;;;;;;;;;;;;;
2024/01/26 08:09:20;;;;;;;24.15;22.25;;;;;;;;;;4985083;28;20053;-91
2024/01/26 08:12:07;;;;;;;30.38;22.67;;;;;;;;;;4970417;28;20135;-89
2024/01/26 08:14:51;;;;;;;30.05;26.42;;;;;;;;;;4967489;28;20086;-90
2024/01/26 08:17:38;;;;;;;27.52;24.67;;;;;;;;;;4983045;28;20123;-91
2024/01/26 08:20:33;;;;;;;25.95;23.58;;;;;;;;;;4983189;28;20104;-91
2024/01/26 08:30:44;;;;;;;29.55;27.00;;;;;;;;;;4993786;28;20168;-88
2024/01/26 08:33:45;;;;;;;30.52;27.55;;;;;;;;;;4973749;28;20397;-89
2024/01/26 08:36:29;;;;;;;33.20;27.77;;;;;;;;;;4961781;28;20095;-90
2024/01/26 08:39:13;;;;;;;30.35;27.25;;;;;;;;;;4973387;28;20045;-89
2024/01/26 08:42:13;;;;;;;31.05;28.15;;;;;;;;;;4972532;28;20049;-89
2024/01/26 08:48:13;;;;;;;33.35;27.00;;;;;;;;;;4988499;28;20086;-89
2024/01/26 08:54:30;;;;;;;28.02;25.73;;;;;;;;;;4984514;28;20077;-88
2024/01/26 08:57:26;;;;;;;31.83;28.83;;;;;;;;;;4975959;28;20093;-88
2024/01/26 09:00:44;;;;;;;30.45;27.42;;;;;;;;;;4969380;28;20436;-91
2024/01/26 09:03:28;;;;;;;31.27;25.35;;;;;;;;;;4981940;28;20085;-88
2024/01/26 09:06:13;;;;;;;28.40;25.40;;;;;;;;;;4964566;28;20088;-90
2024/01/26 09:08:57;;;;;;;26.85;24.38;;;;;;;;;;4974358;28;20570;-89
2024/01/26 09:11:41;;;;;;;28.73;24.45;;;;;;;;;;4967895;28;20369;-90
2024/01/26 09:14:25;;;;;;;27.48;25.38;;;;;;;;;;4968468;28;20550;-90
2024/01/26 09:17:09;;;;;;;26.38;23.83;;;;;;;;;;4988895;28;20381;-91
2024/01/26 09:19:53;;;;;;;27.80;23.48;;;;;;;;;;4979265;28;20450;-90
2024/01/26 09:22:37;;;;;;;28.00;25.13;;;;;;;;;;4983093;28;20050;-89
2024/01/26 09:25:21;;;;;;;33.35;24.02;;;;;;;;;;4975813;28;20162;-91
2024/01/26 09:28:05;;;;;;;28.33;25.70;;;;;;;;;;4972005;28;20496;-90
2024/01/26 09:30:49;;;;;;;29.17;26.08;;;;;;;;;;4974654;28;20061;-91
2024/01/26 09:33:33;;;;;;;36.80;26.60;;;;;;;;;;4969862;28;20100;-90
2024/01/26 09:36:19;;;;;;;28.20;25.27;;;;;;;;;;4982687;28;20551;-89
2024/01/26 09:39:07;;;;;;;31.85;27.25;;;;;;;;;;4974245;28;20077;-90
2024/01/26 09:41:51;;;;;;;29.10;26.45;;;;;;;;;;4975567;28;20097;-89
2024/01/26 09:44:36;;;;;;;32.20;27.13;;;;;;;;;;4977382;28;20096;-88
2024/01/26 09:47:28;;;;;;;32.33;22.58;;;;;;;;;;4970884;28;20044;-90
2024/01/26 09:50:15;;;;;;;24.95;23.08;;;;;;;;;;4976402;28;20117;-91
2024/01/26 09:53:05;;;;;;;28.85;26.15;;;;;;;;;;4964027;28;20041;-90
2024/01/26 09:55:54;;;;;;;26.13;23.83;;;;;;;;;;4972378;28;20504;-90
2024/01/26 09:59:11;;;;;;;27.55;24.67;;;;;;;;;;4971980;28;20551;-90
2024/01/26 10:02:03;;;;;;;31.65;24.38;;;;;;;;;;4973927;28;20098;-89
2024/01/26 10:04:48;;;;;;;26.65;23.50;;;;;;;;;;4976449;28;20499;-90
2024/01/26 10:07:36;;;;;;;28.08;21.02;;;;;;;;;;4980328;28;20037;-90
2024/01/26 10:10:23;;;;;;;25.83;22.88;;;;;;;;;;4971365;28;20126;-92
2024/01/26 10:13:15;;;;;;;26.15;23.40;;;;;;;;;;4973066;28;20057;-89
2024/01/26 10:16:05;;;;;;;26.73;24.10;;;;;;;;;;4970149;28;20052;-89
2024/01/26 10:18:52;;;;;;;27.00;24.27;;;;;;;;;;4968357;28;20041;-91
2024/01/26 10:22:04;;;;;;;24.92;22.30;;;;;;;;;;4973307;28;20472;-90
2024/01/26 10:25:05;;;;;;;;;;;;;;;;;;;;;
2024/01/26 10:27:52;;;;;;;25.08;15.30;;;;;;;;;;4986731;28;20141;-89
2024/01/26 10:30:45;;;;;;;21.85;19.67;;;;;;;;;;4977092;28;20097;-91
2024/01/26 10:33:39;;;;;;;19.85;18.20;;;;;;;;;;4974210;28;20057;-91
2024/01/26 10:36:26;;;;;;;23.75;16.55;;;;;;;;;;4974132;28;20033;-90
2024/01/26 10:39:19;;;;;;;20.35;17.95;;;;;;;;;;4978979;28;20544;-90
2024/01/26 10:42:04;;;;;;;26.83;17.00;;;;;;;;;;4974437;28;20613;-89
2024/01/26 10:44:49;;;;;;;23.30;17.77;;;;;;;;;;4968176;28;20444;-89
2024/01/26 10:47:36;;;;;;;20.42;15.82;;;;;;;;;;4960714;28;20158;-88
2024/01/26 10:50:20;;;;;;;32.30;20.05;;;;;;;;;;4942963;29;20389;-87
2024/01/26 10:53:05;;;;;;;24.02;14.07;;;;;;;;;;4943262;29;20034;-88
2024/01/26 10:55:49;;;;;;;26.42;13.68;;;;;;;;;;4943522;29;20098;-87
2024/01/26 10:58:33;;;;;;;22.23;10.32;;;;;;;;;;4943158;29;20037;-88
2024/01/26 11:01:17;;;;;;;16.23;9.48;;;;;;;;;;4942916;29;20094;-89
2024/01/26 11:04:14;;;;;;;19.67;9.68;;;;;;;;;;4942712;29;20046;-89
2024/01/26 11:06:59;;;;;;;18.70;8.77;;;;;;;;;;4971824;28;20081;-87
2024/01/26 11:09:46;;;;;;;23.05;8.32;;;;;;;;;;4982663;28;20034;-89
2024/01/26 11:12:32;;;;;;;20.65;8.52;;;;;;;;;;4996826;28;20058;-87
2024/01/26 11:15:18;;;;;;;18.13;7.63;;;;;;;;;;4984144;28;20076;-88
2024/01/26 11:18:03;;;;;;;17.58;7.68;;;;;;;;;;4968523;28;20045;-89
2024/01/26 11:20:48;;;;;;;17.70;8.27;;;;;;;;;;4968150;28;20041;-88
2024/01/26 11:23:40;;;;;;;20.15;7.75;;;;;;;;;;4975489;28;20105;-87
2024/01/26 11:26:25;;;;;;;25.67;8.57;;;;;;;;;;4967409;28;20522;-87
2024/01/26 11:29:12;;;;;;;24.50;8.45;;;;;;;;;;4965355;28;20034;-86
2024/01/26 11:31:57;;;;;;;20.45;7.45;;;;;;;;;;4967465;28;20049;-87
2024/01/26 11:34:41;;;;;;;24.92;7.68;;;;;;;;;;4959877;28;20093;-86
2024/01/26 11:37:29;;;;;;;21.08;6.97;;;;;;;;;;4968986;28;20448;-86
2024/01/26 11:40:14;;;;;;;15.77;7.80;;;;;;;;;;4977275;28;20101;-87
2024/01/26 11:42:58;;;;;;;22.08;8.15;;;;;;;;;;4979271;28;20563;-87
2024/01/26 11:45:42;;;;;;;21.17;9.30;;;;;;;;;;4963494;28;20112;-87
2024/01/26 11:48:27;;;;;;;18.05;7.50;;;;;;;;;;4962153;28;20492;-89
2024/01/26 11:51:11;;;;;;;18.75;7.53;;;;;;;;;;4964383;28;20053;-87
2024/01/26 11:53:55;;;;;;;17.58;7.20;;;;;;;;;;4966578;28;20412;-88
2024/01/26 11:56:40;;;;;;;18.45;7.47;;;;;;;;;;4966486;28;20042;-88
2024/01/26 11:59:24;;;;;;;20.73;7.00;;;;;;;;;;4963885;28;20038;-87
2024/01/26 12:02:08;;;;;;;16.38;6.30;;;;;;;;;;4984303;28;20475;-87
2024/01/26 12:04:51;;;;;;;18.83;6.30;;;;;;;;;;4965800;28;20049;-86
2024/01/26 12:07:40;;;;;;;20.55;6.25;;;;;;;;;;4967783;28;20134;-88
2024/01/26 12:10:25;;;;;;;15.88;6.40;;;;;;;;;;4968587;28;20054;-87
2024/01/26 12:13:10;;;;;;;20.35;6.68;;;;;;;;;;4967706;28;20401;-88
2024/01/26 12:15:54;;;;;;;17.45;5.90;;;;;;;;;;4968440;28;20049;-86
2024/01/26 12:18:42;;;;;;;14.63;5.50;;;;;;;;;;4971745;28;20065;-85
2024/01/26 12:21:37;;;;;;;;;;;;;;;;;;;;;
2024/01/26 12:24:27;;;;;;;23.40;6.40;;;;;;;;;;4979912;28;20124;-87
2024/01/26 12:30:22;;;;;;;16.50;6.80;;;;;;;;;;4976245;28;20112;-88
2024/01/26 12:33:40;;;;;;;13.02;5.45;;;;;;;;;;4959562;28;20101;-88
2024/01/26 12:36:33;;;;;;;18.65;5.85;;;;;;;;;;4982895;28;20037;-88
2024/01/26 12:39:28;;;;;;;;;;;;;;;;;;;;;
2024/01/26 12:42:54;;;;;;;18.20;6.78;;;;;;;;;;4899610;29;19975;-88
2024/01/26 12:46:25;;;;;;;20.30;6.22;;;;;;;;;;4896044;29;20535;-87
2024/01/26 12:52:49;;;;;;;21.55;5.65;;;;;;;;;;4902775;29;20039;-86
2024/01/26 12:55:36;;;;;;;19.08;5.65;;;;;;;;;;4908580;29;20051;-87
2024/01/26 12:58:21;;;;;;;19.67;5.28;;;;;;;;;;4988624;28;20081;-89
2024/01/26 13:01:47;;;;;;;;;;;;;;;;;;;;;
2024/01/26 13:08:35;;;;;;;14.73;5.97;;;;;;;;;;4979624;28;20562;-88
2024/01/26 13:18:49;;;;;;;22.03;6.00;;;;;;;;;;4977341;28;20547;-87
2024/01/26 13:21:54;;;;;;;;;;;;;;;;;;;;;
2024/01/26 13:24:47;;;;;;;18.77;6.93;;;;;;;;;;4977881;28;20054;-86
2024/01/26 13:27:47;;;;;;;21.17;6.50;;;;;;;;;;4959720;28;20130;-88
2024/01/26 13:30:31;;;;;;;19.65;5.72;;;;;;;;;;4965602;28;20070;-90
2024/01/26 13:33:19;;;;;;;16.00;6.07;;;;;;;;;;4970759;28;20105;-88
2024/01/26 13:36:04;;;;;;;11.35;5.95;;;;;;;;;;4970974;28;20563;-89
2024/01/26 13:38:48;;;;;;;15.50;5.07;;;;;;;;;;4968000;28;20041;-89
2024/01/26 13:41:44;;;;;;;14.63;5.32;;;;;;;;;;4980731;28;20061;-90
2024/01/26 13:55:54;;;;;;;11.15;4.75;;;;;;;;;;4999412;28;20045;-91
2024/01/26 13:58:48;;;;;;;15.80;5.20;;;;;;;;;;4996874;28;20058;-90
2024/01/26 14:05:38;;;;;;;;;;;;;;;;;;;;;
2024/01/26 14:12:12;;;;;;;11.50;4.78;;;;;;;;;;4997840;28;20065;-90
2024/01/26 14:15:19;;;;;;;16.30;5.68;;;;;;;;;;4983892;28;20093;-89
2024/01/26 14:18:08;;;;;;;16.15;4.97;;;;;;;;;;4987579;28;20094;-91
2024/01/26 14:24:09;;;;;;;10.75;4.80;;;;;;;;;;5001416;28;20057;-91
2024/01/26 14:26:54;;;;;;;20.10;5.43;;;;;;;;;;4967928;28;20568;-90
2024/01/26 14:29:54;;;;;;;16.77;5.03;;;;;;;;;;4972805;28;20520;-89
2024/01/26 14:32:41;;;;;;;16.40;4.95;;;;;;;;;;4967583;28;20076;-90
2024/01/26 14:42:43;;;;;;;;;;;;;;;;;;4982742;28;20054;-90
2024/01/26 14:45:40;;;;;;;;;;;;;;;;;;;;;
2024/01/26 14:48:41;;;;;;;15.00;5.13;;;;;;;;;;4982762;28;20109;-90
2024/01/26 14:51:26;;;;;;;14.32;5.05;;;;;;;;;;4966527;28;20178;-90
2024/01/26 14:54:10;;;;;;;11.85;4.55;;;;;;;;;;4969720;28;20126;-90
2024/01/26 14:56:57;;;;;;;13.70;5.15;;;;;;;;;;4966466;28;20122;-90
2024/01/26 15:00:01;;;;;;;13.98;6.05;;;;;;;;;;4965432;28;20049;-90
2024/01/26 15:02:46;;;;;;;17.10;5.18;;;;;;;;;;4965397;28;20041;-90
2024/01/26 15:09:05;;;;;;;8.77;5.28;;;;;;;;;;4980991;28;20077;-91
2024/01/26 15:11:57;;;;;;;12.90;5.43;;;;;;;;;;4972642;28;20049;-90
2024/01/26 15:14:44;;;;;;;18.83;4.93;;;;;;;;;;4970617;28;20045;-89
2024/01/26 15:17:29;;;;;;;13.80;5.70;;;;;;;;;;4974563;28;20519;-89
2024/01/26 15:23:31;;;;;;;19.30;5.22;;;;;;;;;;4981899;28;20046;-89
2024/01/26 15:26:17;;;;;;;10.90;4.75;;;;;;;;;;4961632;28;20050;-89
2024/01/26 15:29:01;;;;;;;12.48;5.70;;;;;;;;;;4962277;28;20037;-88
2024/01/26 15:31:45;;;;;;;16.20;5.07;;;;;;;;;;4973602;28;20073;-86
2024/01/26 15:34:41;;;;;;;14.70;4.90;;;;;;;;;;4970336;28;20163;-89
2024/01/26 15:37:26;;;;;;;8.93;5.22;;;;;;;;;;4968030;28;20136;-88
2024/01/26 15:44:13;;;;;;;16.25;5.30;;;;;;;;;;4982295;28;20406;-85
2024/01/26 15:47:39;;;;;;;;;;;;;;;;;;;;;
2024/01/26 15:57:41;;;;;;;16.17;5.70;;;;;;;;;;4982177;28;20129;-87
2024/01/26 16:01:01;;;;;;;14.00;5.45;;;;;;;;;;4966066;28;20088;-88
2024/01/26 16:04:27;;;;;;;15.88;5.57;;;;;;;;;;4975376;28;20405;-92
2024/01/26 16:07:17;;;;;;;12.90;5.60;;;;;;;;;;4975205;28;20042;-89
2024/01/26 16:10:01;;;;;;;16.75;5.15;;;;;;;;;;4969054;28;20117;-89
2024/01/26 16:12:55;;;;;;;14.07;4.88;;;;;;;;;;4972809;28;20069;-89
2024/01/26 16:19:20;;;;;;;14.52;4.85;;;;;;;;;;4985933;28;20057;-89
2024/01/26 16:22:10;;;;;;;14.43;4.68;;;;;;;;;;4966387;28;20081;-90
2024/01/26 16:24:54;;;;;;;15.95;5.10;;;;;;;;;;4970847;28;20382;-91
2024/01/26 16:27:38;;;;;;;12.38;5.20;;;;;;;;;;4960502;29;20162;-91
2024/01/26 16:30:24;;;;;;;21.08;6.30;;;;;;;;;;4963026;28;20042;-90
2024/01/26 16:33:11;;;;;;;17.02;5.50;;;;;;;;;;4948130;29;20042;-92
2024/01/26 16:35:55;;;;;;;15.00;5.53;;;;;;;;;;4960962;28;20050;-87
2024/01/26 16:38:42;;;;;;;10.73;5.05;;;;;;;;;;4967998;28;20105;-89
2024/01/26 16:41:27;;;;;;;20.55;6.93;;;;;;;;;;4970479;28;20364;-87
2024/01/26 16:44:11;;;;;;;14.32;6.07;;;;;;;;;;4976142;28;20049;-88
2024/01/26 16:46:55;;;;;;;14.75;6.05;;;;;;;;;;4967750;28;20544;-89
2024/01/26 16:53:42;;;;;;;15.27;6.85;;;;;;;;;;4979702;28;20050;-91
2024/01/26 16:56:28;;;;;;;16.88;7.18;;;;;;;;;;4962031;28;20089;-89
2024/01/26 16:59:13;;;;;;;24.55;8.18;;;;;;;;;;4965225;28;20186;-88
2024/01/26 17:02:07;;;;;;;14.52;7.30;;;;;;;;;;4980425;28;20049;-87
2024/01/26 17:08:28;;;;;;;22.90;9.18;;;;;;;;;;4980522;28;20129;-90
2024/01/26 17:11:12;;;;;;;18.33;7.20;;;;;;;;;;4970989;28;20049;-91
2024/01/26 17:13:57;;;;;;;16.85;7.68;;;;;;;;;;4961966;28;20092;-88
2024/01/26 17:16:43;;;;;;;20.48;7.60;;;;;;;;;;4978467;28;20073;-88
2024/01/26 17:19:27;;;;;;;34.78;17.02;;;;;;;;;;4977817;28;20073;-88
2024/01/26 17:22:11;;;;;;;32.90;15.57;;;;;;;;;;4972169;28;20085;-89
2024/01/26 17:24:59;;;;;;;30.38;11.80;;;;;;;;;;4968095;28;20050;-88
2024/01/26 17:31:16;;;;;;;16.83;8.23;;;;;;;;;;4983600;28;20053;-89
2024/01/26 17:34:32;;;;;;;22.15;8.90;;;;;;;;;;4975123;28;20049;-89
2024/01/26 17:37:17;;;;;;;34.40;8.35;;;;;;;;;;4986586;28;20392;-89
2024/01/26 17:40:05;;;;;;;11.65;7.75;;;;;;;;;;4977113;28;20041;-90
2024/01/26 17:43:19;;;;;;;21.98;9.65;;;;;;;;;;4974825;28;20157;-91
2024/01/26 17:46:06;;;;;;;24.90;9.88;;;;;;;;;;4972825;28;20041;-92
2024/01/26 17:48:53;;;;;;;17.42;6.93;;;;;;;;;;4970572;28;20112;-92
2024/01/26 17:59:02;;;;;;;20.25;7.20;;;;;;;;;;4999217;28;20130;-91
2024/01/26 18:01:46;;;;;;;26.02;7.00;;;;;;;;;;4974307;28;20053;-92
2024/01/26 18:04:34;;;;;;;19.27;7.00;;;;;;;;;;4969965;28;20053;-91
2024/01/26 18:07:18;;;;;;;28.95;6.50;;;;;;;;;;4955850;28;20404;-89
2024/01/26 18:10:12;;;;;;;25.88;7.38;;;;;;;;;;4988229;28;20519;-89
2024/01/26 18:12:57;;;;;;;29.27;9.60;;;;;;;;;;4960957;28;20053;-89
2024/01/26 18:15:41;;;;;;;18.40;8.70;;;;;;;;;;4981194;28;20049;-86
2024/01/26 18:22:15;;;;;;;18.77;6.90;;;;;;;;;;4999200;28;20590;-88
2024/01/26 18:25:28;;;;;;;22.40;8.20;;;;;;;;;;4971920;28;20126;-91
2024/01/26 18:32:24;;;;;;;19.73;8.43;;;;;;;;;;4986802;28;20085;-86
2024/01/26 18:35:49;;;;;;;17.58;7.28;;;;;;;;;;4978272;28;20045;-90
2024/01/26 18:42:41;;;;;;;20.98;7.32;;;;;;;;;;4988495;28;20042;-88
2024/01/26 18:49:36;;;;;;;14.57;6.07;;;;;;;;;;4984623;28;20041;-89
2024/01/26 18:52:39;;;;;;;15.23;5.70;;;;;;;;;;4975673;28;20570;-87
2024/01/26 19:06:26;;;;;;;22.85;7.75;;;;;;;;;;4926632;29;20095;-88
2024/01/26 19:20:07;;;;;;;20.00;8.38;;;;;;;;;;4949429;28;20035;-90
2024/01/26 19:22:58;;;;;;;15.55;6.53;;;;;;;;;;4923976;29;20532;-89
2024/01/26 19:28:59;;;;;;;21.35;8.60;;;;;;;;;;4961337;29;20087;-89
2024/01/26 19:31:54;;;;;;;23.48;7.93;;;;;;;;;;4947601;29;20050;-90
2024/01/26 19:34:51;;;;;;;24.55;8.15;;;;;;;;;;4981578;28;20049;-90
2024/01/26 19:40:54;;;;;;;23.33;8.68;;;;;;;;;;4999716;28;20563;-88
2024/01/26 19:43:43;;;;;;;16.58;7.63;;;;;;;;;;4985490;28;20116;-90
2024/01/26 19:46:29;;;;;;;19.30;7.10;;;;;;;;;;4985740;28;20045;-89
2024/01/26 19:49:45;;;;;;;41.47;16.55;;;;;;;;;;4983548;28;20037;-90
2024/01/26 19:52:39;;;;;;;31.33;13.23;;;;;;;;;;4935883;28;20146;-89
2024/01/26 19:55:42;;;;;;;36.33;15.15;;;;;;;;;;4987367;28;20037;-89
2024/01/26 19:58:32;;;;;;;24.58;11.13;;;;;;;;;;4987667;28;20108;-89
2024/01/26 20:01:47;;;;;;;20.75;8.52;;;;;;;;;;4987651;28;20579;-89
2024/01/26 20:04:32;;;;;;;19.27;8.70;;;;;;;;;;4987386;28;20108;-88
2024/01/26 20:07:18;;;;;;;28.63;12.02;;;;;;;;;;4967454;28;20126;-89
2024/01/26 20:10:12;;;;;;;15.52;9.55;;;;;;;;;;4968590;28;20072;-87
2024/01/26 20:12:57;;;;;;;25.23;10.55;;;;;;;;;;4968938;28;20050;-88
2024/01/26 20:15:47;;;;;;;20.33;8.20;;;;;;;;;;4971283;28;20068;-86
2024/01/26 20:18:32;;;;;;;18.17;7.63;;;;;;;;;;4986087;28;20041;-88
2024/01/26 20:21:18;;;;;;;22.67;7.22;;;;;;;;;;4969700;28;20225;-88
2024/01/26 20:24:02;;;;;;;25.48;7.97;;;;;;;;;;4972520;28;20100;-88
2024/01/26 20:26:52;;;;;;;23.27;7.95;;;;;;;;;;4968401;28;20538;-88
2024/01/26 20:29:58;;;;;;;19.30;6.72;;;;;;;;;;4968162;28;20053;-87
2024/01/26 20:36:14;;;;;;;26.15;7.78;;;;;;;;;;4983453;28;20046;-88
2024/01/26 20:38:58;;;;;;;30.90;11.40;;;;;;;;;;4970415;28;20413;-88
2024/01/26 20:41:44;;;;;;;32.03;9.25;;;;;;;;;;4978421;28;20052;-89
2024/01/26 20:44:32;;;;;;;23.17;7.40;;;;;;;;;;4970746;28;20042;-89
2024/01/26 20:47:20;;;;;;;16.95;6.68;;;;;;;;;;4966575;28;20093;-88
2024/01/26 20:50:08;;;;;;;22.80;6.80;;;;;;;;;;4979293;28;20044;-89
2024/01/26 20:52:52;;;;;;;28.00;7.60;;;;;;;;;;4966535;28;20061;-87
2024/01/26 20:56:07;;;;;;;30.63;8.35;;;;;;;;;;4971693;28;20523;-89
2024/01/26 20:58:52;;;;;;;26.17;7.10;;;;;;;;;;4967880;28;20066;-89
2024/01/26 21:01:36;;;;;;;25.65;7.05;;;;;;;;;;4985512;28;20097;-90
2024/01/26 21:04:25;;;;;;;19.50;6.07;;;;;;;;;;4968905;28;20057;-90
2024/01/26 21:07:09;;;;;;;24.20;6.00;;;;;;;;;;4962557;28;20500;-86
2024/01/26 21:09:53;;;;;;;17.70;5.68;;;;;;;;;;4969649;28;20037;-87
2024/01/26 21:12:38;;;;;;;20.42;7.55;;;;;;;;;;4964996;28;20504;-88
2024/01/26 21:15:25;;;;;;;16.92;7.57;;;;;;;;;;4968439;28;20093;-88
2024/01/26 21:18:53;;;;;;;24.23;8.32;;;;;;;;;;4968197;28;20190;-89
2024/01/26 21:21:37;;;;;;;29.40;8.48;;;;;;;;;;4989081;28;20415;-87
2024/01/26 21:24:27;;;;;;;38.75;13.10;;;;;;;;;;4973526;28;20066;-88
2024/01/26 21:27:14;;;;;;;21.77;8.93;;;;;;;;;;4974421;28;20046;-87
2024/01/26 21:29:58;;;;;;;35.65;9.60;;;;;;;;;;4978745;28;20041;-87
2024/01/26 21:32:42;;;;;;;31.40;11.48;;;;;;;;;;4972500;28;20100;-88
2024/01/26 21:35:26;;;;;;;26.02;9.50;;;;;;;;;;4968906;28;20513;-89
2024/01/26 21:38:11;;;;;;;23.52;8.43;;;;;;;;;;4970106;28;20046;-88
2024/01/26 21:40:55;;;;;;;30.85;12.45;;;;;;;;;;4959031;28;20105;-88
2024/01/26 21:43:39;;;;;;;31.55;10.63;;;;;;;;;;4979198;28;20127;-90
2024/01/26 21:46:23;;;;;;;27.35;13.80;;;;;;;;;;4976213;28;20199;-86
2024/01/26 21:49:07;;;;;;;38.70;15.10;;;;;;;;;;4986570;28;20101;-89
2024/01/26 21:51:56;;;;;;;28.92;11.73;;;;;;;;;;4978569;28;20073;-89
2024/01/26 21:54:45;;;;;;;48.22;18.58;;;;;;;;;;4974598;28;20050;-89
2024/01/26 21:57:29;;;;;;;30.15;12.45;;;;;;;;;;4980161;28;20385;-89
2024/01/26 22:00:24;;;;;;;34.70;13.45;;;;;;;;;;4980811;28;20053;-88
2024/01/26 22:03:09;;;;;;;33.38;14.02;;;;;;;;;;4966861;28;20050;-89
2024/01/26 22:13:12;;;;;;;49.13;16.55;;;;;;;;;;4987100;28;20042;-87
2024/01/26 22:16:03;;;;;;;32.60;11.77;;;;;;;;;;4983784;28;20088;-87
2024/01/26 22:22:31;;;;;;;42.45;10.60;;;;;;;;;;4980604;28;20093;-86
2024/01/26 22:25:57;;;;;;;32.42;10.20;;;;;;;;;;4974452;28;20097;-86
2024/01/26 22:32:09;;;;;;;28.38;9.35;;;;;;;;;;4985684;28;20045;-84
2024/01/26 22:34:53;;;;;;;28.70;8.38;;;;;;;;;;4965899;28;20042;-87
2024/01/26 22:37:38;;;;;;;24.45;9.32;;;;;;;;;;4967297;28;21069;-86
2024/01/26 22:40:25;;;;;;;40.50;12.57;;;;;;;;;;4960101;28;20046;-87
2024/01/26 22:43:10;;;;;;;40.90;14.00;;;;;;;;;;4973214;28;20049;-86
2024/01/26 22:45:56;;;;;;;31.27;9.35;;;;;;;;;;4965806;28;20090;-87
2024/01/26 22:48:44;;;;;;;29.90;11.00;;;;;;;;;;4972607;28;20045;-86
2024/01/26 22:51:31;;;;;;;46.13;13.80;;;;;;;;;;4968288;28;20141;-86
2024/01/26 22:58:17;;;;;;;24.10;7.35;;;;;;;;;;4988820;28;20045;-86
2024/01/26 23:09:00;;;;;;;32.08;7.18;;;;;;;;;;4981227;28;20046;-88
2024/01/26 23:15:47;;;;;;;;;;;;;;;;;;;;;
2024/01/26 23:22:19;;;;;;;24.73;5.82;;;;;;;;;;4985272;28;20138;-85
2024/01/26 23:25:27;;;;;;;26.25;6.72;;;;;;;;;;4978097;28;20045;-86
2024/01/26 23:28:14;;;;;;;22.15;5.97;;;;;;;;;;4974749;28;20480;-85
2024/01/26 23:31:07;;;;;;;27.75;5.90;;;;;;;;;;4966528;28;20060;-86
2024/01/26 23:34:13;;;;;;;23.87;4.90;;;;;;;;;;4966814;28;20197;-87
2024/01/26 23:37:14;;;;;;;;;;;;;;;;;;;;;
2024/01/26 23:51:14;;;;;;;25.33;5.90;;;;;;;;;;4963812;28;20034;-88
2024/01/26 23:57:45;;;;;;;16.63;5.78;;;;;;;;;;4920533;28;20048;-89
